createdAt,value
2022-10-03T00:00:10.077Z,40.65771
2022-10-03T00:05:11.726Z,40.35604
2022-10-03T00:10:13.342Z,42.57902
2022-10-03T00:15:14.924Z,41.21398
2022-10-03T00:20:16.537Z,42.30813
2022-10-03T00:25:18.152Z,43.21821
2022-10-03T00:30:19.827Z,43.41543
2022-10-03T00:35:21.436Z,43.4038
2022-10-03T00:40:23.083Z,44.53287
2022-10-03T00:45:24.679Z,42.85474
2022-10-03T00:50:26.272Z,43.98426
2022-10-03T00:55:27.898Z,45.93803
2022-10-03T01:00:29.476Z,44.40904
2022-10-03T01:05:31.058Z,44.23669
2022-10-03T01:10:32.655Z,46.74327
2022-10-03T01:15:34.430Z,46.17496
2022-10-03T01:20:36.004Z,45.9632
2022-10-03T01:25:37.618Z,46.46085
2022-10-03T01:30:39.230Z,48.05174
2022-10-03T01:35:40.847Z,46.92138
2022-10-03T01:40:42.485Z,48.4389
2022-10-03T01:45:44.106Z,48.58369
2022-10-03T01:50:45.695Z,48.18227
2022-10-03T01:55:47.297Z,49.65421
2022-10-03T02:00:48.997Z,50.89745
2022-10-03T02:05:50.671Z,51.11742
2022-10-03T02:10:52.267Z,51.47524
2022-10-03T02:15:53.933Z,49.81183
2022-10-03T02:20:55.557Z,53.25644
2022-10-03T02:25:57.151Z,52.24225
2022-10-03T02:30:58.729Z,51.96407
2022-10-03T02:36:00.307Z,51.328
2022-10-03T02:41:01.867Z,52.0681
2022-10-03T02:46:03.515Z,53.24917
2022-10-03T02:51:05.212Z,53.04173
2022-10-03T02:56:06.804Z,53.29389
2022-10-03T03:01:08.430Z,54.84663
2022-10-03T03:06:10.088Z,52.26312
2022-10-03T03:11:11.710Z,52.45762
2022-10-03T03:16:13.350Z,54.19832
2022-10-03T03:21:15.049Z,54.20177
2022-10-03T03:26:16.657Z,54.09744
2022-10-03T03:31:18.344Z,56.0216
2022-10-03T03:36:19.966Z,55.52838
2022-10-03T03:41:21.617Z,54.3249
2022-10-03T03:46:23.230Z,58.48422
2022-10-03T03:51:24.818Z,57.30276
2022-10-03T03:56:26.460Z,56.9683
2022-10-03T04:01:28.113Z,64.27468
2022-10-03T04:06:29.797Z,60.61292
2022-10-03T04:11:31.395Z,60.77857
2022-10-03T04:16:33.085Z,58.20204
2022-10-03T04:21:34.735Z,60.21065
2022-10-03T04:26:36.339Z,63.97305
2022-10-03T04:31:38.331Z,62.57487
2022-10-03T04:36:40.253Z,64.54208
2022-10-03T04:41:43.204Z,62.84308
2022-10-03T04:46:45.074Z,61.23565
2022-10-03T04:51:46.700Z,62.40297
2022-10-03T04:56:48.353Z,62.88741
2022-10-03T05:01:50.096Z,61.16431
2022-10-03T05:06:51.869Z,59.25505
2022-10-03T05:11:53.607Z,61.89269
2022-10-03T05:16:55.269Z,65.58802
2022-10-03T05:21:57.030Z,61.58551
2022-10-03T05:26:58.709Z,62.23448
2022-10-03T05:32:00.409Z,61.02464
2022-10-03T05:37:02.075Z,59.73294
2022-10-03T05:42:21.611Z,62.63104
2022-10-03T05:47:24.235Z,63.48763
2022-10-03T05:52:25.890Z,59.69282
2022-10-03T05:57:27.489Z,62.78142
2022-10-03T06:02:29.227Z,67.10806
2022-10-03T06:07:30.958Z,66.0239
2022-10-03T06:12:32.665Z,72.36331
2022-10-03T06:17:34.333Z,66.19919
2022-10-03T06:22:35.921Z,66.37403
2022-10-03T06:27:37.707Z,74.22167
2022-10-03T06:32:39.394Z,67.04634
2022-10-03T06:37:40.979Z,71.06259
2022-10-03T06:42:42.604Z,68.02071
2022-10-03T06:47:44.201Z,66.72702
2022-10-03T06:52:45.807Z,63.98944
2022-10-03T06:57:47.475Z,68.94342
2022-10-03T07:02:49.242Z,71.6213
2022-10-03T07:07:51.032Z,67.94121
2022-10-03T07:12:52.710Z,65.1313
2022-10-03T07:17:54.325Z,65.08356
2022-10-03T07:22:55.976Z,64.6357
2022-10-03T07:27:57.619Z,69.02273
2022-10-03T07:32:59.309Z,69.78811
2022-10-03T07:38:00.946Z,69.41219
2022-10-03T07:43:02.639Z,65.95526
2022-10-03T07:48:04.230Z,67.50747
2022-10-03T07:53:05.866Z,68.24158
2022-10-03T07:58:07.483Z,66.5539
2022-10-03T08:03:09.193Z,68.24443
2022-10-03T08:08:10.946Z,71.13805
2022-10-03T08:13:12.618Z,66.1112
2022-10-03T08:18:14.245Z,68.39003
2022-10-03T08:23:15.871Z,69.83566
2022-10-03T08:28:17.550Z,70.91517
2022-10-03T08:33:19.302Z,70.2315
2022-10-03T08:38:23.842Z,69.84485
2022-10-03T08:43:27.873Z,68.86221
2022-10-03T08:48:29.530Z,73.06394
2022-10-03T08:53:31.149Z,67.97208
2022-10-03T08:58:32.760Z,69.27807
2022-10-03T09:03:38.098Z,67.85716
2022-10-03T09:08:43.664Z,67.17326
2022-10-03T09:13:45.276Z,69.92342
2022-10-03T09:18:46.890Z,70.46473
2022-10-03T09:23:48.470Z,72.8687
2022-10-03T09:28:50.065Z,71.474
2022-10-03T09:33:51.784Z,72.77247
2022-10-03T09:38:53.386Z,74.08628
2022-10-03T09:43:55.008Z,73.60976
2022-10-03T09:48:56.662Z,77.50959
2022-10-03T09:53:58.297Z,74.21747
2022-10-03T09:58:59.916Z,72.07891
2022-10-03T10:04:01.558Z,75.55202
2022-10-03T10:09:03.210Z,72.44359
2022-10-03T10:14:08.421Z,72.41395
2022-10-03T10:19:10.567Z,72.5957
2022-10-03T10:24:12.205Z,68.13638
2022-10-03T10:29:13.794Z,67.059
2022-10-03T10:34:15.411Z,66.83555
2022-10-03T10:39:17.026Z,65.29685
2022-10-03T10:44:18.652Z,67.13114
2022-10-03T10:49:20.382Z,68.72485
2022-10-03T10:54:21.997Z,69.11878
2022-10-03T10:59:23.605Z,69.3491
2022-10-03T11:04:25.185Z,69.04734
2022-10-03T11:09:26.840Z,66.29957
2022-10-03T11:14:28.462Z,65.86469
2022-10-03T11:19:30.023Z,66.52319
2022-10-03T11:24:31.611Z,67.20252
2022-10-03T11:29:33.214Z,66.88803
2022-10-03T11:34:34.813Z,69.3625
2022-10-03T11:39:36.422Z,67.62181
2022-10-03T11:44:38.073Z,69.11355
2022-10-03T11:49:39.696Z,67.49442
2022-10-03T11:54:41.335Z,69.20936
2022-10-03T11:59:43.049Z,68.56464
2022-10-03T12:04:44.733Z,73.78913
2022-10-03T12:09:46.395Z,69.57211
2022-10-03T12:14:48.043Z,68.14463
2022-10-03T12:19:49.713Z,70.20291
2022-10-03T12:24:51.325Z,70.18731
2022-10-03T12:29:53.087Z,69.40928
2022-10-03T12:34:54.729Z,71.34964
2022-10-03T12:39:56.324Z,69.81576
2022-10-03T12:44:57.934Z,72.20481
2022-10-03T12:49:59.532Z,68.73472
2022-10-03T12:55:01.230Z,68.61638
2022-10-03T13:00:02.890Z,67.55606
2022-10-03T13:05:04.474Z,67.2965
2022-10-03T13:10:06.056Z,67.01576
2022-10-03T13:15:07.666Z,68.86768
2022-10-03T13:20:09.388Z,69.4315
2022-10-03T13:25:11.070Z,68.54601
2022-10-03T13:30:12.658Z,69.23256
2022-10-03T13:35:14.274Z,68.02567
2022-10-03T13:40:15.853Z,74.02687
2022-10-03T13:45:17.431Z,72.95207
2022-10-03T13:50:19.032Z,72.84857
2022-10-03T13:55:20.657Z,69.02894
2022-10-03T14:00:22.239Z,72.1819
2022-10-03T14:05:23.764Z,71.20502
2022-10-03T14:10:25.368Z,74.33431
2022-10-03T14:15:27.133Z,68.37195
2022-10-03T14:20:28.785Z,70.99467
2022-10-03T14:25:30.381Z,71.21475
2022-10-03T14:30:31.985Z,67.63389
2022-10-03T14:35:33.590Z,68.76917
2022-10-03T14:40:35.208Z,70.20399
2022-10-03T14:45:37.014Z,71.54381
2022-10-03T14:50:38.638Z,71.86033
2022-10-03T14:55:40.382Z,71.91363
2022-10-03T15:00:42.010Z,70.31284
2022-10-03T15:05:43.622Z,74.63412
2022-10-03T15:10:45.244Z,71.9607
2022-10-03T15:15:46.923Z,69.18526
2022-10-03T15:20:48.578Z,70.17588
2022-10-03T15:25:50.218Z,70.94505
2022-10-03T15:30:51.858Z,69.31127
2022-10-03T15:35:53.454Z,73.12687
2022-10-03T15:40:55.064Z,69.82804
2022-10-03T15:45:56.838Z,73.34081
2022-10-03T15:50:58.486Z,73.70892
2022-10-03T15:56:00.094Z,69.01444
2022-10-03T16:01:01.710Z,63.23275
2022-10-03T16:06:03.407Z,61.91972
2022-10-03T16:11:05.017Z,61.76717
2022-10-03T16:16:06.708Z,68.13137
2022-10-03T16:21:08.410Z,64.84401
2022-10-03T16:26:10.013Z,65.04326
2022-10-03T16:31:11.719Z,60.82195
2022-10-03T16:36:13.351Z,56.15532
2022-10-03T16:41:15.007Z,56.63975
2022-10-03T16:46:16.710Z,58.27572
2022-10-03T16:51:18.373Z,60.2695
2022-10-03T16:56:19.985Z,54.7254
2022-10-03T17:01:27.394Z,56.52878
2022-10-03T17:06:29.628Z,52.41603
2022-10-03T17:11:31.243Z,51.5419
2022-10-03T17:16:32.980Z,57.13038
2022-10-03T17:21:34.630Z,56.15055
2022-10-03T17:26:36.411Z,52.13708
2022-10-03T17:31:38.595Z,56.06867
2022-10-03T17:36:40.709Z,52.39127
2022-10-03T17:41:42.993Z,52.43849
2022-10-03T17:46:44.959Z,48.29217
2022-10-03T17:51:46.560Z,47.24657
2022-10-03T17:56:48.183Z,47.67052
2022-10-03T18:01:49.801Z,46.5389
2022-10-03T18:06:51.440Z,46.06038
2022-10-03T18:11:53.018Z,43.80945
2022-10-03T18:16:54.623Z,40.84277
2022-10-03T18:21:56.244Z,41.66007
2022-10-03T18:26:57.844Z,43.52966
2022-10-03T18:31:59.506Z,45.39869
2022-10-03T18:37:01.186Z,41.78461
2022-10-03T18:42:02.760Z,41.78794
2022-10-03T18:47:04.376Z,41.58815
2022-10-03T18:52:05.970Z,41.69785
2022-10-03T18:57:07.551Z,41.79673
2022-10-03T19:02:09.223Z,38.5656
2022-10-03T19:07:10.996Z,39.02913
2022-10-03T19:12:12.626Z,37.93332
2022-10-03T19:17:14.274Z,36.04676
2022-10-03T19:22:15.907Z,35.8023
2022-10-03T19:27:17.598Z,35.65431
2022-10-03T19:32:19.265Z,34.55651
2022-10-03T19:37:20.865Z,34.90162
2022-10-03T19:42:22.483Z,35.03661
2022-10-03T19:47:24.079Z,34.71613
2022-10-03T19:52:25.707Z,33.34744
2022-10-03T19:57:27.297Z,31.94332
2022-10-03T20:02:28.952Z,32.18138
2022-10-03T20:07:30.618Z,30.27102
2022-10-03T20:12:32.212Z,31.6955
2022-10-03T20:17:33.826Z,30.77195
2022-10-03T20:22:35.443Z,31.19451
2022-10-03T20:27:37.061Z,32.85806
2022-10-03T20:32:38.640Z,33.38598
2022-10-03T20:37:40.282Z,31.96468
2022-10-03T20:42:41.879Z,33.12035
2022-10-03T20:47:43.517Z,31.57873
2022-10-03T20:52:45.152Z,29.55061
2022-10-03T20:57:46.752Z,32.31832
2022-10-03T21:02:48.451Z,30.55542
2022-10-03T21:07:50.093Z,31.91952
2022-10-03T21:12:51.709Z,32.05654
2022-10-03T21:17:53.325Z,32.54174
2022-10-03T21:22:54.954Z,32.66715
2022-10-03T21:27:56.596Z,33.29644
2022-10-03T21:32:58.257Z,32.77595
2022-10-03T21:37:59.882Z,30.76037
2022-10-03T21:43:02.597Z,31.19838
2022-10-03T21:48:04.203Z,31.03039
2022-10-03T21:53:05.833Z,32.84311
2022-10-03T21:58:07.422Z,33.08659
2022-10-03T22:03:09.028Z,33.7561
2022-10-03T22:08:10.630Z,33.21618
2022-10-03T22:13:12.223Z,34.1465
2022-10-03T22:18:13.965Z,36.96259
2022-10-03T22:23:15.604Z,36.65777
2022-10-03T22:28:17.245Z,39.0596
2022-10-03T22:33:18.904Z,39.61285
2022-10-03T22:38:20.516Z,39.9668
2022-10-03T22:43:22.152Z,40.05401
2022-10-03T22:48:23.769Z,37.56119
2022-10-03T22:53:25.360Z,35.9673
2022-10-03T22:58:26.983Z,36.7365
2022-10-03T23:03:28.633Z,36.73143
2022-10-03T23:08:30.255Z,36.99983
2022-10-03T23:13:31.836Z,36.39007
2022-10-03T23:18:33.445Z,36.77295
2022-10-03T23:23:35.011Z,37.51605
2022-10-03T23:28:36.606Z,38.33642
2022-10-03T23:33:38.194Z,38.67611
2022-10-03T23:38:39.824Z,39.47516
2022-10-03T23:43:41.417Z,39.35858
2022-10-03T23:48:43.007Z,40.76771
2022-10-03T23:53:44.625Z,40.96528
2022-10-03T23:58:46.268Z,41.28434
